Terminal Aerodrome Forecast
Issued by NWS Charleston, WV

Current Version | Previous Version | Graphics & Text | Print | Product List | Glossary On
Versions: 1 2 3 4 5 6 7 8 9 10 11 12 13 14 15 16 17 18 19 20 21 22 23 24 25 26
999
FTUS41 KRLX 282327
TAFHTS
TAF
KHTS 282327Z 2900/2924 13005KT P6SM SCT150
     FM290100 17004KT P6SM VCTS BKN060CB
     FM290200 VRB06KT 3SM SHRA BKN050
      TEMPO 2902/2904 VRB15G25KT 2SM TSRA OVC040CB
     FM290500 20004KT P6SM BKN070=

USA.gov is the U.S. government's official web portal to all federal, state and local government web resources and services.